Cedar City, Utah Weather observations

Data are for observation ending at time listed.
 Day   Time    Ave.   Ave.  Ave.  Vector   Max.   Stn.    Total    Solar   Ave.  
  of    of     Air    Rel.  Wind   Wind    Wind   Baro.  Precip.   Rad.    Soil  
Year   Day     Temp.  Hum.  Speed  Dir.    Gust   Pres.                    Temp. 
2015   (MST)    F      %     mph   deg.    mph     mb.     in.     W/m2     F   
------------------------------------------------------------------------------
  25   20:40   35.3    76    1.0   135      1.9   832.2    0.00       0    35.9
  25   20:50   34.6    76    1.3   180      2.4   832.2    0.00       0    35.9
  25   21:00   33.8    78    1.1   155      3.1   832.3    0.00       0    35.9
  25   21:10   33.9    79    1.0   111      1.7   832.2    0.00       0    35.9
  25   21:20   34.7    78    1.0   113      2.3   832.2    0.00       0    35.9
  25   21:30   34.2    77    1.4   193      3.0   832.2    0.00       0    35.9
  25   21:40   33.3    78    2.4   190      3.4   832.2    0.00       0    35.9
  25   21:50   32.8    79    1.6   187      2.3   832.2    0.00       0    35.9
  25   22:00   32.5    81    1.7   162      2.9   832.2    0.00       0    35.8
  25   22:10   32.2    81    0.8   167      2.2   832.2    0.00       0    35.8
  25   22:20   32.2    82    0.4   115      1.6   832.2    0.00       0    35.8
  25   22:30   32.3    82    0.3   113      1.6   832.3    0.00       0    35.8
  25   22:40   31.8    82    0.1   119      0.7   832.3    0.00       0    35.8
  25   22:50   31.4    83    0.7   186      1.9   832.3    0.00       0    35.7
  25   23:00   30.8    83    0.9   168      2.0   832.4    0.00       0    35.7
  25   23:10   30.5    84    1.4   187      2.4   832.4    0.00       0    35.7
  25   23:20   30.3    84    1.2   173      2.2   832.5    0.00       0    35.7
  25   23:30   29.9    84    0.4   176      1.2   832.6    0.00       0    35.6
  25   23:40   29.6    85    0.5   149      1.7   832.7    0.00       0    35.6
  25   23:50   29.9    86    0.4   194      1.2   832.7    0.00       0    35.6
  26    0:00   29.7    87    0.6   137      1.3   832.7    0.00       0    35.6
  26    0:10   30.9    87    0.6   113      1.5   832.8    0.00       0    35.6
  26    0:20   30.6    86    0.2   173      1.2   832.7    0.00       0    35.6
  26    0:30   30.1    86    0.5   152      1.3   832.6    0.00       0    35.5
  26    0:40   29.7    86    0.5   211      1.7   832.5    0.00       0    35.5
  26    0:50   29.6    87    0.5   121      1.8   832.5    0.00       0    35.5
  26    1:00   29.5    87    0.7   195      1.6   832.4    0.00       0    35.4
  26    1:10   29.6    87    0.6   150      1.5   832.5    0.00       0    35.4
  26    1:20   29.2    87    0.2   184      1.2   832.5    0.00       0    35.4
  26    1:30   29.3    87    1.3   126      2.0   832.4    0.00       0    35.4
  26    1:40   29.6    88    0.3   102      1.2   832.4    0.00       0    35.4
  26    1:50   29.3    87    0.4   154      1.4   832.3    0.00       0    35.3
  26    2:00   28.9    87    0.9   190      1.8   832.3    0.00       0    35.3
  26    2:10   28.6    87    0.8   174      2.0   832.3    0.00       0    35.3
  26    2:20   28.4    88    0.7    89      2.6   832.3    0.00       0    35.3
  26    2:30   30.1    87    1.8    97      3.4   832.2    0.00       0    35.2
  26    2:40   30.5    84    0.7    98      1.7   832.2    0.00       0    35.2
  26    2:50   29.8    83    0.7   214      2.0   832.2    0.00       0    35.2
  26    3:00   29.3    84    0.7   158      1.9   832.2    0.00       0    35.2
  26    3:10   29.7    83    1.1    88      2.0   832.1    0.00       0    35.2
  26    3:20   31.9    78    2.3    79      3.6   831.9    0.00       0    35.1
  26    3:30   32.2    72    1.5   192      2.3   831.9    0.00       0    35.1
  26    3:40   29.5    76    1.6   182      3.1   831.8    0.00       0    35.1
  26    3:50   28.3    80    0.2   179      1.2   831.8    0.00       0    35.0
  26    4:00   28.2    83    0.9   186      2.3   831.8    0.00       0    35.0
  26    4:10   28.1    84    0.9   164      1.9   831.8    0.00       0    35.0
  26    4:20   28.2    85    0.6   134      2.3   831.7    0.00       0    35.0
  26    4:30   28.8    85    1.9    72      2.8   831.5    0.00       0    35.0
  26    4:40   29.5    82    1.5    82      3.1   831.4    0.00       0    35.0
  26    4:50   28.9    82    0.2   165      0.9   831.3    0.00       0    34.9
  26    5:00   28.0    83    0.9   203      3.4   831.3    0.00       0    34.9
  26    5:10   27.5    84    1.0   166      3.7   831.3    0.00       0    34.9
  26    5:20   28.0    85    0.8    63      1.8   831.2    0.00       0    34.9
  26    5:30   27.8    84    1.0   144      2.4   831.2    0.00       0    34.9
  26    5:40   27.3    84    1.0   147      2.2   831.1    0.00       0    34.8
  26    5:50   27.0    85    0.5   200      1.8   831.1    0.00       0    34.8
  26    6:00   26.8    85    0.5   188      1.9   831.2    0.00       0    34.8
  26    6:10   26.4    86    0.5   175      2.0   831.2    0.00       0    34.8
  26    6:20   26.5    86    1.2   132      2.5   831.2    0.00       0    34.7
  26    6:30   26.7    87    0.3   151      1.8   831.2    0.00       0    34.7
  26    6:40   27.3    87    1.5    93      2.5   831.2    0.00       0    34.7
  26    6:50   27.5    86    0.8   114      2.1   831.2    0.00       0    34.7
  26    7:00   26.9    85    0.8   177      2.3   831.3    0.00       0    34.6
  26    7:10   26.6    86    0.6   110      2.5   831.3    0.00       0    34.6
  26    7:20   27.0    87    0.2   132      2.0   831.3    0.00       0    34.6
  26    7:30   27.6    87    1.2   110      2.3   831.2    0.00       0    34.6
  26    7:40   28.1    86    0.8   104      2.3   831.2    0.00       2    34.6
  26    7:50   27.6    85    0.4   184      2.1   831.1    0.00       5    34.6
  26    8:00   27.6    86    1.3    99      2.8   831.1    0.00       7    34.5
  26    8:10   28.6    85    1.3    95      2.4   831.1    0.00      10    34.5
  26    8:20   29.3    83    1.6    85      2.8   831.0    0.00      13    34.5
  26    8:30   29.8    82    0.3   105      1.0   831.0    0.00      15    34.5
  26    8:40   29.9    81    0.8   166      1.8   831.0    0.00      98    34.5
  26    8:50   33.0    78    0.8   174      1.8   831.0    0.00     158    34.5
  26    9:00   35.3    72    1.4    85      4.8   831.0    0.00     192    34.5
  26    9:10   38.1    68    0.8   167      2.0   830.9    0.00     213    34.5
  26    9:20   40.4    63    0.2    81      1.2   830.8    0.00     243    34.6
  26    9:30   41.5    62    0.9   209      2.2   830.9    0.00     269    34.6
  26    9:40   41.8    63    1.7   188      3.4   830.9    0.00     279    34.6
  26    9:50   41.9    64    1.1   191      3.0   830.9    0.00     278    34.6
  26   10:00   41.7    65    0.9   168      2.2   830.8    0.00     365    34.6
  26   10:10   42.4    64    0.8     8      4.1   830.7    0.00     379    34.7
  26   10:20   41.2    68    2.4   294      4.7   830.8    0.00     381    34.7
  26   10:30   41.0    69    2.6   291      4.8   830.6    0.00     408    34.6
  26   10:40   41.6    67    2.6   281      6.2   831.0    0.00     451    34.6
  26   10:50   42.0    67    1.9   288      4.0   830.9    0.00     467    34.6
  26   11:00   42.6    65    2.4   305      4.7   830.5    0.00     486    34.6
  26   11:10   43.1    64    2.1   304      4.0   830.7    0.00     476    34.6
  26   11:20   43.7    64    2.9   279      5.5   831.1    0.00     500    34.7
  26   11:30   43.8    63    2.2   326      5.0   830.9    0.00     421    34.7
  26   11:40   44.0    62    2.7   287      5.4   830.9    0.00     545    34.7
  26   11:50   45.4    61    1.7   281      4.1   830.5    0.00     500    34.7
  26   12:00   46.0    60    2.1   328      4.7   830.7    0.00     547    34.7
  26   12:10   46.5    58    2.3   311      5.8   830.1    0.00     555    34.8
  26   12:20   47.0    57    2.7   288      6.1   830.6    0.00     542    34.8
  26   12:30   48.0    55    1.9   273      4.0   830.1    0.00     503    34.8
  26   12:40   48.3    53    2.8   275      6.1   829.6    0.00     507    34.8
  26   12:50   49.4    51    1.8   210      5.3   830.0    0.00     526    34.9
  26   13:00   50.3    49    2.1   311      5.0   830.2    0.00     576    35.0
  26   13:10   50.3    47    2.2   335      5.1   829.5    0.00     593    35.0
  26   13:20   50.7    46    2.0   337      4.2   829.7    0.00     589    35.0
  26   13:30   51.7    44    2.8   326      6.8   829.6    0.00     559    35.1
  26   13:40   51.1    44    3.0   308      7.0   829.7    0.00     435    35.1
  26   13:50   50.8    46    3.1   299      5.9   829.2    0.00     365    35.1
  26   14:00   51.4    46    2.4   314      6.4   829.2    0.00     426    35.2
  26   14:10   51.7    44    2.4   292      5.8   828.8    0.00     374    35.2
  26   14:20   52.0    44    2.1   262      4.5   828.9    0.00     305    35.2
  26   14:30   52.7    44    1.5   287      4.6   828.9    0.00     342    35.3
  26   14:40   53.2    44    2.2    22      5.5   828.7    0.00     465    35.3
  26   14:50   53.8    43    1.7   325      3.8   828.5    0.00     484    35.4
  26   15:00   53.2    44    3.0    50      5.9   829.0    0.00     437    35.5
  26   15:10   53.0    43    2.4    24      6.6   828.7    0.00     356    35.6
  26   15:20   52.8    43    2.1    41      6.4   828.6    0.00     234    35.6
  26   15:30   52.6    44    2.4   326      5.0   828.7    0.00     239    35.6
  26   15:40   52.9    43    2.3     9      5.6   828.5    0.00     280    35.7
  26   15:50   52.6    44    3.1    46      6.0   828.4    0.00     199    35.7
  26   16:00   52.8    43    1.7   360      3.7   828.3    0.00     223    35.8
  26   16:10   53.0    43    1.7    14      4.8   828.2    0.00     224    35.9
  26   16:20   53.3    42    2.5   338      5.7   828.1    0.00     160    35.9
  26   16:30   53.7    42    2.5   312      5.6   828.1    0.00     214    36.0
  26   16:40   52.7    43    2.9   309      5.4   828.0    0.00      96    36.1
  26   16:50   52.9    42    2.0   305      6.4   828.0    0.00     184    36.1
  26   17:00   53.0    42    2.4   308      5.0   828.0    0.00     145    36.2
  26   17:10   52.6    43    2.2   279      4.6   828.0    0.00     133    36.3
  26   17:20   52.1    44    2.2   268      4.2   828.0    0.00      71    36.3
  26   17:30   51.5    45    1.4   311      3.1   827.9    0.00      23    36.4
  26   17:40   50.7    46    1.1   355      2.3   828.0    0.00      14    36.4
  26   17:50   50.2    47    1.4    64      2.1   827.9    0.00       6    36.5
  26   18:00   49.4    48    0.3   130      0.9   827.9    0.00       1    36.5
  26   18:10   47.4    52    0.4   147      1.8   827.8    0.00       0    36.6
  26   18:20   46.2    54    1.2   112      2.1   827.8    0.00       0    36.6
  26   18:30   45.4    55    1.6   197      3.4   827.8    0.00       0    36.7
  26   18:40   43.9    57    1.6   159      3.1   827.8    0.00       0    36.7
  26   18:50   42.8    60    1.5   171      3.6   827.9    0.00       0    36.7
  26   19:00   42.0    61    2.0   171      3.3   827.9    0.00       0    36.8
  26   19:10   42.0    61    1.6   142      3.1   828.0    0.00       0    36.8
  26   19:20   41.1    62    1.6   162      3.1   828.0    0.00       0    36.8
  26   19:30   40.3    64    1.4   117      2.9   828.0    0.00       0    36.8
  26   19:40   40.5    63    1.6   120      2.5   828.0    0.00       0    36.9
  26   19:50   41.1    61    2.3    72      4.1   827.9    0.00       0    36.9
  26   20:00   42.9    56    4.1    76      7.0   827.9    0.00       0    36.9
  26   20:10   43.7    53    3.4    82      9.0   827.8    0.00       0    36.9
  26   20:20   42.5    56    2.6   217      5.9   828.0    0.00       0    36.9
  26   20:30   40.9    60    2.3   156      5.2   828.1    0.00       0    36.9

Return to Cedar City, Utah graphs page.


Western Regional Climate Center,wrcc@dri.edu